sensor_id;sensor_type;location;lat;lon;timestamp;P1;durP1;ratioP1;P2;durP2;ratioP2
75167;SDS011;63748;48.088;11.476;2022-10-28T00:02:12;2.63;;;1.33;;
75167;SDS011;63748;48.088;11.476;2022-10-28T00:04:38;2.63;;;1.00;;
75167;SDS011;63748;48.088;11.476;2022-10-28T00:07:04;1.63;;;1.17;;
75167;SDS011;63748;48.088;11.476;2022-10-28T00:09:30;3.58;;;1.40;;
75167;SDS011;63748;48.088;11.476;2022-10-28T00:11:56;4.90;;;1.50;;
75167;SDS011;63748;48.088;11.476;2022-10-28T00:14:22;4.70;;;1.38;;
75167;SDS011;63748;48.088;11.476;2022-10-28T00:16:49;2.60;;;1.52;;
75167;SDS011;63748;48.088;11.476;2022-10-28T00:19:15;3.83;;;1.27;;
75167;SDS011;63748;48.088;11.476;2022-10-28T00:21:41;2.90;;;1.35;;
75167;SDS011;63748;48.088;11.476;2022-10-28T00:24:09;2.03;;;1.30;;
75167;SDS011;63748;48.088;11.476;2022-10-28T00:26:36;1.98;;;1.33;;
75167;SDS011;63748;48.088;11.476;2022-10-28T00:29:04;3.42;;;1.40;;
75167;SDS011;63748;48.088;11.476;2022-10-28T00:31:30;3.08;;;1.23;;
75167;SDS011;63748;48.088;11.476;2022-10-28T00:33:57;1.42;;;0.95;;
75167;SDS011;63748;48.088;11.476;2022-10-28T00:36:24;2.75;;;1.30;;
75167;SDS011;63748;48.088;11.476;2022-10-28T00:38:51;1.73;;;1.20;;
75167;SDS011;63748;48.088;11.476;2022-10-28T00:41:20;2.50;;;1.38;;
75167;SDS011;63748;48.088;11.476;2022-10-28T00:43:50;3.60;;;1.35;;
75167;SDS011;63748;48.088;11.476;2022-10-28T00:46:23;2.03;;;1.08;;
75167;SDS011;63748;48.088;11.476;2022-10-28T00:48:53;3.60;;;1.38;;
75167;SDS011;63748;48.088;11.476;2022-10-28T00:51:20;1.88;;;1.48;;
75167;SDS011;63748;48.088;11.476;2022-10-28T00:53:47;4.70;;;1.30;;
75167;SDS011;63748;48.088;11.476;2022-10-28T00:56:14;7.20;;;1.20;;
75167;SDS011;63748;48.088;11.476;2022-10-28T00:58:41;3.60;;;1.30;;
75167;SDS011;63748;48.088;11.476;2022-10-28T01:01:08;1.70;;;0.93;;
75167;SDS011;63748;48.088;11.476;2022-10-28T01:03:34;3.97;;;0.93;;
75167;SDS011;63748;48.088;11.476;2022-10-28T01:06:01;3.38;;;0.95;;
75167;SDS011;63748;48.088;11.476;2022-10-28T01:08:27;4.25;;;1.27;;
75167;SDS011;63748;48.088;11.476;2022-10-28T01:11:14;4.00;;;1.63;;
75167;SDS011;63748;48.088;11.476;2022-10-28T01:16:23;2.90;;;1.25;;
75167;SDS011;63748;48.088;11.476;2022-10-28T01:18:59;1.45;;;1.30;;
75167;SDS011;63748;48.088;11.476;2022-10-28T01:34:21;2.97;;;1.10;;
75167;SDS011;63748;48.088;11.476;2022-10-28T01:41:53;2.13;;;1.10;;
75167;SDS011;63748;48.088;11.476;2022-10-28T01:46:53;1.75;;;0.98;;
75167;SDS011;63748;48.088;11.476;2022-10-28T01:49:27;1.73;;;0.85;;
75167;SDS011;63748;48.088;11.476;2022-10-28T01:51:57;1.98;;;1.02;;
75167;SDS011;63748;48.088;11.476;2022-10-28T01:54:26;2.83;;;1.23;;
75167;SDS011;63748;48.088;11.476;2022-10-28T01:56:54;3.75;;;1.30;;
75167;SDS011;63748;48.088;11.476;2022-10-28T01:59:21;2.95;;;1.00;;
75167;SDS011;63748;48.088;11.476;2022-10-28T02:01:48;2.42;;;1.10;;
75167;SDS011;63748;48.088;11.476;2022-10-28T02:04:14;2.75;;;1.17;;
75167;SDS011;63748;48.088;11.476;2022-10-28T02:06:42;1.83;;;1.10;;
75167;SDS011;63748;48.088;11.476;2022-10-28T02:11:49;4.55;;;1.15;;
75167;SDS011;63748;48.088;11.476;2022-10-28T02:17:09;2.53;;;1.05;;
75167;SDS011;63748;48.088;11.476;2022-10-28T02:27:04;2.83;;;1.02;;
75167;SDS011;63748;48.088;11.476;2022-10-28T02:29:37;2.63;;;1.20;;
75167;SDS011;63748;48.088;11.476;2022-10-28T02:32:10;3.88;;;1.45;;
75167;SDS011;63748;48.088;11.476;2022-10-28T02:34:39;2.35;;;1.10;;
75167;SDS011;63748;48.088;11.476;2022-10-28T02:37:10;1.88;;;1.08;;
75167;SDS011;63748;48.088;11.476;2022-10-28T02:39:40;3.42;;;1.27;;
75167;SDS011;63748;48.088;11.476;2022-10-28T02:42:29;3.25;;;1.67;;
75167;SDS011;63748;48.088;11.476;2022-10-28T02:44:58;3.40;;;1.30;;
75167;SDS011;63748;48.088;11.476;2022-10-28T02:47:27;1.95;;;1.00;;
75167;SDS011;63748;48.088;11.476;2022-10-28T02:49:58;2.00;;;1.10;;
75167;SDS011;63748;48.088;11.476;2022-10-28T02:52:26;3.10;;;1.50;;
75167;SDS011;63748;48.088;11.476;2022-10-28T02:54:57;3.67;;;1.70;;
75167;SDS011;63748;48.088;11.476;2022-10-28T02:57:28;4.55;;;1.52;;
75167;SDS011;63748;48.088;11.476;2022-10-28T02:59:57;1.50;;;1.02;;
75167;SDS011;63748;48.088;11.476;2022-10-28T03:02:23;2.15;;;1.08;;
75167;SDS011;63748;48.088;11.476;2022-10-28T03:04:50;3.63;;;1.17;;
75167;SDS011;63748;48.088;11.476;2022-10-28T03:07:16;2.92;;;0.93;;
75167;SDS011;63748;48.088;11.476;2022-10-28T03:09:42;2.60;;;1.05;;
75167;SDS011;63748;48.088;11.476;2022-10-28T03:12:08;6.30;;;1.13;;
75167;SDS011;63748;48.088;11.476;2022-10-28T03:14:34;1.92;;;1.10;;
75167;SDS011;63748;48.088;11.476;2022-10-28T03:17:00;2.47;;;1.17;;
75167;SDS011;63748;48.088;11.476;2022-10-28T03:19:26;2.17;;;1.13;;
75167;SDS011;63748;48.088;11.476;2022-10-28T03:21:52;4.10;;;1.00;;
75167;SDS011;63748;48.088;11.476;2022-10-28T03:24:18;1.90;;;1.13;;
75167;SDS011;63748;48.088;11.476;2022-10-28T03:26:44;3.88;;;1.20;;
75167;SDS011;63748;48.088;11.476;2022-10-28T03:29:11;3.83;;;1.00;;
75167;SDS011;63748;48.088;11.476;2022-10-28T03:31:37;2.65;;;0.85;;
75167;SDS011;63748;48.088;11.476;2022-10-28T03:34:03;3.53;;;1.15;;
75167;SDS011;63748;48.088;11.476;2022-10-28T03:36:29;0.80;;;0.80;;
75167;SDS011;63748;48.088;11.476;2022-10-28T03:38:55;2.63;;;1.00;;
75167;SDS011;63748;48.088;11.476;2022-10-28T03:41:21;3.17;;;1.05;;
75167;SDS011;63748;48.088;11.476;2022-10-28T03:43:47;1.55;;;0.82;;
75167;SDS011;63748;48.088;11.476;2022-10-28T03:46:13;3.67;;;1.05;;
75167;SDS011;63748;48.088;11.476;2022-10-28T03:48:39;1.17;;;0.80;;
75167;SDS011;63748;48.088;11.476;2022-10-28T03:51:05;1.27;;;0.80;;
75167;SDS011;63748;48.088;11.476;2022-10-28T03:53:31;1.80;;;0.93;;
75167;SDS011;63748;48.088;11.476;2022-10-28T03:56:00;3.33;;;1.02;;
75167;SDS011;63748;48.088;11.476;2022-10-28T03:58:26;1.77;;;0.80;;
75167;SDS011;63748;48.088;11.476;2022-10-28T04:00:52;2.97;;;1.30;;
75167;SDS011;63748;48.088;11.476;2022-10-28T04:03:19;1.90;;;1.00;;
75167;SDS011;63748;48.088;11.476;2022-10-28T04:05:45;2.15;;;1.20;;
75167;SDS011;63748;48.088;11.476;2022-10-28T04:08:15;1.95;;;1.20;;
75167;SDS011;63748;48.088;11.476;2022-10-28T04:10:41;2.47;;;1.10;;
75167;SDS011;63748;48.088;11.476;2022-10-28T04:13:08;1.88;;;1.00;;
75167;SDS011;63748;48.088;11.476;2022-10-28T04:15:34;6.32;;;1.63;;
75167;SDS011;63748;48.088;11.476;2022-10-28T04:18:01;4.22;;;1.10;;
75167;SDS011;63748;48.088;11.476;2022-10-28T04:20:27;3.83;;;0.85;;
75167;SDS011;63748;48.088;11.476;2022-10-28T04:22:53;3.75;;;1.10;;
75167;SDS011;63748;48.088;11.476;2022-10-28T04:25:20;2.03;;;1.15;;
75167;SDS011;63748;48.088;11.476;2022-10-28T04:27:46;2.53;;;1.15;;
75167;SDS011;63748;48.088;11.476;2022-10-28T04:30:12;4.82;;;1.30;;
75167;SDS011;63748;48.088;11.476;2022-10-28T04:32:39;3.42;;;1.10;;
75167;SDS011;63748;48.088;11.476;2022-10-28T04:35:05;3.10;;;1.20;;
75167;SDS011;63748;48.088;11.476;2022-10-28T04:37:31;4.05;;;1.30;;
75167;SDS011;63748;48.088;11.476;2022-10-28T04:39:57;2.60;;;1.48;;
75167;SDS011;63748;48.088;11.476;2022-10-28T04:42:23;3.67;;;2.20;;
75167;SDS011;63748;48.088;11.476;2022-10-28T04:44:49;2.70;;;1.50;;
75167;SDS011;63748;48.088;11.476;2022-10-28T04:47:16;2.10;;;1.42;;
75167;SDS011;63748;48.088;11.476;2022-10-28T04:49:42;3.55;;;1.75;;
75167;SDS011;63748;48.088;11.476;2022-10-28T04:52:08;2.17;;;1.63;;
75167;SDS011;63748;48.088;11.476;2022-10-28T04:54:35;7.13;;;1.58;;
75167;SDS011;63748;48.088;11.476;2022-10-28T04:57:01;4.70;;;1.17;;
75167;SDS011;63748;48.088;11.476;2022-10-28T04:59:27;3.78;;;1.52;;
75167;SDS011;63748;48.088;11.476;2022-10-28T05:01:53;3.97;;;1.58;;
75167;SDS011;63748;48.088;11.476;2022-10-28T05:04:19;1.80;;;1.23;;
75167;SDS011;63748;48.088;11.476;2022-10-28T05:06:45;2.53;;;1.30;;
75167;SDS011;63748;48.088;11.476;2022-10-28T05:09:11;3.75;;;1.05;;
75167;SDS011;63748;48.088;11.476;2022-10-28T05:11:38;3.05;;;1.10;;
75167;SDS011;63748;48.088;11.476;2022-10-28T05:14:04;2.28;;;1.10;;
75167;SDS011;63748;48.088;11.476;2022-10-28T05:16:30;3.35;;;1.08;;
75167;SDS011;63748;48.088;11.476;2022-10-28T05:18:56;1.50;;;0.90;;
75167;SDS011;63748;48.088;11.476;2022-10-28T05:21:22;2.80;;;0.90;;
75167;SDS011;63748;48.088;11.476;2022-10-28T05:23:48;2.40;;;1.05;;
75167;SDS011;63748;48.088;11.476;2022-10-28T05:26:15;3.40;;;1.20;;
75167;SDS011;63748;48.088;11.476;2022-10-28T05:28:41;1.23;;;0.90;;
75167;SDS011;63748;48.088;11.476;2022-10-28T05:31:07;2.47;;;0.80;;
75167;SDS011;63748;48.088;11.476;2022-10-28T05:33:33;1.08;;;0.73;;
75167;SDS011;63748;48.088;11.476;2022-10-28T05:35:59;5.25;;;1.23;;
75167;SDS011;63748;48.088;11.476;2022-10-28T05:38:26;2.95;;;1.17;;
75167;SDS011;63748;48.088;11.476;2022-10-28T05:40:52;1.00;;;0.70;;
75167;SDS011;63748;48.088;11.476;2022-10-28T05:43:18;2.08;;;1.10;;
75167;SDS011;63748;48.088;11.476;2022-10-28T05:45:50;0.82;;;0.70;;
75167;SDS011;63748;48.088;11.476;2022-10-28T05:48:16;3.20;;;1.00;;
75167;SDS011;63748;48.088;11.476;2022-10-28T05:50:42;1.80;;;0.82;;
75167;SDS011;63748;48.088;11.476;2022-10-28T05:53:08;2.22;;;1.13;;
75167;SDS011;63748;48.088;11.476;2022-10-28T05:55:34;1.02;;;0.68;;
75167;SDS011;63748;48.088;11.476;2022-10-28T05:58:00;5.10;;;0.90;;
75167;SDS011;63748;48.088;11.476;2022-10-28T06:00:27;2.28;;;0.95;;
75167;SDS011;63748;48.088;11.476;2022-10-28T06:03:06;1.27;;;0.80;;
75167;SDS011;63748;48.088;11.476;2022-10-28T06:05:35;3.10;;;1.02;;
75167;SDS011;63748;48.088;11.476;2022-10-28T06:08:02;1.15;;;0.73;;
75167;SDS011;63748;48.088;11.476;2022-10-28T06:10:28;2.25;;;0.90;;
75167;SDS011;63748;48.088;11.476;2022-10-28T06:12:55;2.72;;;1.23;;
75167;SDS011;63748;48.088;11.476;2022-10-28T06:15:21;4.20;;;1.17;;
75167;SDS011;63748;48.088;11.476;2022-10-28T06:17:47;2.95;;;1.00;;
75167;SDS011;63748;48.088;11.476;2022-10-28T06:20:14;3.22;;;1.13;;
75167;SDS011;63748;48.088;11.476;2022-10-28T06:22:49;2.63;;;1.20;;
75167;SDS011;63748;48.088;11.476;2022-10-28T06:25:16;3.90;;;1.02;;
75167;SDS011;63748;48.088;11.476;2022-10-28T06:27:42;2.75;;;1.05;;
75167;SDS011;63748;48.088;11.476;2022-10-28T06:30:08;2.30;;;0.90;;
75167;SDS011;63748;48.088;11.476;2022-10-28T06:32:35;2.65;;;1.00;;
75167;SDS011;63748;48.088;11.476;2022-10-28T06:35:01;2.13;;;1.15;;
75167;SDS011;63748;48.088;11.476;2022-10-28T06:37:27;1.48;;;0.90;;
75167;SDS011;63748;48.088;11.476;2022-10-28T06:39:53;2.88;;;1.48;;
75167;SDS011;63748;48.088;11.476;2022-10-28T06:42:20;3.25;;;0.80;;
75167;SDS011;63748;48.088;11.476;2022-10-28T06:44:46;1.55;;;1.13;;
75167;SDS011;63748;48.088;11.476;2022-10-28T06:47:13;1.02;;;0.80;;
75167;SDS011;63748;48.088;11.476;2022-10-28T06:49:39;2.60;;;1.30;;
75167;SDS011;63748;48.088;11.476;2022-10-28T06:52:05;4.75;;;1.13;;
75167;SDS011;63748;48.088;11.476;2022-10-28T06:54:31;2.10;;;1.30;;
75167;SDS011;63748;48.088;11.476;2022-10-28T06:56:57;1.73;;;0.93;;
75167;SDS011;63748;48.088;11.476;2022-10-28T06:59:23;2.78;;;0.80;;
75167;SDS011;63748;48.088;11.476;2022-10-28T07:01:49;2.50;;;1.52;;
75167;SDS011;63748;48.088;11.476;2022-10-28T07:04:15;1.63;;;0.80;;
75167;SDS011;63748;48.088;11.476;2022-10-28T07:06:41;2.80;;;0.95;;
75167;SDS011;63748;48.088;11.476;2022-10-28T07:09:08;2.15;;;1.00;;
75167;SDS011;63748;48.088;11.476;2022-10-28T07:11:35;3.30;;;1.10;;
75167;SDS011;63748;48.088;11.476;2022-10-28T07:14:01;2.33;;;0.93;;
75167;SDS011;63748;48.088;11.476;2022-10-28T07:16:27;2.53;;;0.95;;
75167;SDS011;63748;48.088;11.476;2022-10-28T07:18:53;2.35;;;1.10;;
75167;SDS011;63748;48.088;11.476;2022-10-28T07:21:19;3.85;;;1.25;;
75167;SDS011;63748;48.088;11.476;2022-10-28T07:23:48;7.10;;;1.00;;
75167;SDS011;63748;48.088;11.476;2022-10-28T07:26:14;3.47;;;1.00;;
75167;SDS011;63748;48.088;11.476;2022-10-28T07:28:40;4.82;;;1.63;;
75167;SDS011;63748;48.088;11.476;2022-10-28T07:31:07;3.35;;;0.90;;
75167;SDS011;63748;48.088;11.476;2022-10-28T07:33:33;1.88;;;0.98;;
75167;SDS011;63748;48.088;11.476;2022-10-28T07:36:01;3.58;;;0.93;;
75167;SDS011;63748;48.088;11.476;2022-10-28T07:38:27;2.22;;;1.02;;
75167;SDS011;63748;48.088;11.476;2022-10-28T07:40:53;2.33;;;1.05;;
75167;SDS011;63748;48.088;11.476;2022-10-28T07:43:19;3.78;;;0.90;;
75167;SDS011;63748;48.088;11.476;2022-10-28T07:45:45;2.67;;;1.25;;
75167;SDS011;63748;48.088;11.476;2022-10-28T07:48:11;1.45;;;0.68;;
75167;SDS011;63748;48.088;11.476;2022-10-28T07:50:40;1.08;;;0.85;;
75167;SDS011;63748;48.088;11.476;2022-10-28T07:53:07;2.03;;;0.73;;
75167;SDS011;63748;48.088;11.476;2022-10-28T07:55:33;1.92;;;0.98;;
75167;SDS011;63748;48.088;11.476;2022-10-28T07:57:59;4.30;;;1.30;;
75167;SDS011;63748;48.088;11.476;2022-10-28T08:00:25;3.70;;;1.10;;
75167;SDS011;63748;48.088;11.476;2022-10-28T08:02:51;2.03;;;0.82;;
75167;SDS011;63748;48.088;11.476;2022-10-28T08:05:17;1.73;;;0.90;;
75167;SDS011;63748;48.088;11.476;2022-10-28T08:07:43;3.92;;;1.38;;
75167;SDS011;63748;48.088;11.476;2022-10-28T08:10:10;2.28;;;0.88;;
75167;SDS011;63748;48.088;11.476;2022-10-28T08:12:36;2.08;;;1.05;;
75167;SDS011;63748;48.088;11.476;2022-10-28T08:15:03;1.27;;;0.80;;
75167;SDS011;63748;48.088;11.476;2022-10-28T08:17:29;1.65;;;0.77;;
75167;SDS011;63748;48.088;11.476;2022-10-28T08:19:55;3.00;;;1.00;;
75167;SDS011;63748;48.088;11.476;2022-10-28T08:22:21;1.83;;;1.00;;
75167;SDS011;63748;48.088;11.476;2022-10-28T08:24:47;4.68;;;1.50;;
75167;SDS011;63748;48.088;11.476;2022-10-28T08:27:13;0.85;;;0.73;;
75167;SDS011;63748;48.088;11.476;2022-10-28T08:29:39;4.03;;;1.10;;
75167;SDS011;63748;48.088;11.476;2022-10-28T08:32:08;2.53;;;0.77;;
75167;SDS011;63748;48.088;11.476;2022-10-28T08:34:34;3.03;;;1.30;;
75167;SDS011;63748;48.088;11.476;2022-10-28T08:37:00;1.98;;;0.70;;
75167;SDS011;63748;48.088;11.476;2022-10-28T08:39:26;2.03;;;0.88;;
75167;SDS011;63748;48.088;11.476;2022-10-28T08:41:59;2.85;;;0.90;;
75167;SDS011;63748;48.088;11.476;2022-10-28T08:47:12;1.15;;;0.70;;
75167;SDS011;63748;48.088;11.476;2022-10-28T08:49:39;3.83;;;1.20;;
75167;SDS011;63748;48.088;11.476;2022-10-28T08:52:19;4.80;;;1.20;;
75167;SDS011;63748;48.088;11.476;2022-10-28T08:54:55;1.52;;;0.90;;
75167;SDS011;63748;48.088;11.476;2022-10-28T08:57:33;5.68;;;0.90;;
75167;SDS011;63748;48.088;11.476;2022-10-28T09:00:02;1.42;;;0.82;;
75167;SDS011;63748;48.088;11.476;2022-10-28T09:02:30;1.70;;;1.00;;
75167;SDS011;63748;48.088;11.476;2022-10-28T09:05:03;2.33;;;0.80;;
75167;SDS011;63748;48.088;11.476;2022-10-28T09:07:31;1.75;;;0.95;;
75167;SDS011;63748;48.088;11.476;2022-10-28T09:09:58;2.65;;;0.93;;
75167;SDS011;63748;48.088;11.476;2022-10-28T09:17:36;4.85;;;1.00;;
75167;SDS011;63748;48.088;11.476;2022-10-28T09:33:05;2.90;;;1.23;;
75167;SDS011;63748;48.088;11.476;2022-10-28T09:35:35;1.63;;;1.25;;
75167;SDS011;63748;48.088;11.476;2022-10-28T09:38:10;4.03;;;0.95;;
75167;SDS011;63748;48.088;11.476;2022-10-28T09:40:38;1.67;;;1.10;;
75167;SDS011;63748;48.088;11.476;2022-10-28T09:43:10;2.40;;;0.80;;
75167;SDS011;63748;48.088;11.476;2022-10-28T09:45:41;3.90;;;0.95;;
75167;SDS011;63748;48.088;11.476;2022-10-28T09:48:28;3.03;;;1.00;;
75167;SDS011;63748;48.088;11.476;2022-10-28T09:50:56;1.50;;;1.00;;
75167;SDS011;63748;48.088;11.476;2022-10-28T09:53:39;2.30;;;1.00;;
75167;SDS011;63748;48.088;11.476;2022-10-28T09:56:06;5.05;;;1.25;;
75167;SDS011;63748;48.088;11.476;2022-10-28T09:58:32;1.60;;;0.95;;
75167;SDS011;63748;48.088;11.476;2022-10-28T10:00:59;2.38;;;1.10;;
75167;SDS011;63748;48.088;11.476;2022-10-28T10:03:25;3.05;;;0.80;;
75167;SDS011;63748;48.088;11.476;2022-10-28T10:05:51;1.15;;;0.75;;
75167;SDS011;63748;48.088;11.476;2022-10-28T10:08:19;3.45;;;1.02;;
75167;SDS011;63748;48.088;11.476;2022-10-28T10:13:16;2.72;;;0.80;;
75167;SDS011;63748;48.088;11.476;2022-10-28T10:15:45;2.63;;;0.88;;
75167;SDS011;63748;48.088;11.476;2022-10-28T10:18:16;2.40;;;1.10;;
75167;SDS011;63748;48.088;11.476;2022-10-28T10:20:49;0.95;;;0.90;;
75167;SDS011;63748;48.088;11.476;2022-10-28T10:23:22;2.70;;;1.00;;
75167;SDS011;63748;48.088;11.476;2022-10-28T10:28:15;2.55;;;0.80;;
75167;SDS011;63748;48.088;11.476;2022-10-28T10:30:45;1.98;;;0.73;;
75167;SDS011;63748;48.088;11.476;2022-10-28T10:33:21;1.20;;;0.85;;
75167;SDS011;63748;48.088;11.476;2022-10-28T10:35:52;2.58;;;0.90;;
75167;SDS011;63748;48.088;11.476;2022-10-28T10:38:18;2.53;;;0.90;;
75167;SDS011;63748;48.088;11.476;2022-10-28T10:40:48;2.78;;;1.38;;
75167;SDS011;63748;48.088;11.476;2022-10-28T10:45:51;1.75;;;0.88;;
75167;SDS011;63748;48.088;11.476;2022-10-28T10:48:17;3.03;;;1.00;;
75167;SDS011;63748;48.088;11.476;2022-10-28T10:50:47;2.22;;;1.00;;
75167;SDS011;63748;48.088;11.476;2022-10-28T10:53:20;3.67;;;1.27;;
75167;SDS011;63748;48.088;11.476;2022-10-28T10:55:49;1.90;;;1.10;;
75167;SDS011;63748;48.088;11.476;2022-10-28T10:58:17;1.58;;;0.93;;
75167;SDS011;63748;48.088;11.476;2022-10-28T11:00:44;2.10;;;1.10;;
75167;SDS011;63748;48.088;11.476;2022-10-28T11:03:15;2.55;;;1.88;;
75167;SDS011;63748;48.088;11.476;2022-10-28T11:05:55;2.60;;;0.75;;
75167;SDS011;63748;48.088;11.476;2022-10-28T11:08:38;1.30;;;1.00;;
75167;SDS011;63748;48.088;11.476;2022-10-28T11:13:30;2.00;;;0.95;;
75167;SDS011;63748;48.088;11.476;2022-10-28T11:15:59;2.65;;;1.30;;
75167;SDS011;63748;48.088;11.476;2022-10-28T11:18:25;2.25;;;1.13;;
75167;SDS011;63748;48.088;11.476;2022-10-28T11:26:07;3.13;;;1.88;;
75167;SDS011;63748;48.088;11.476;2022-10-28T11:43:55;2.25;;;1.10;;
75167;SDS011;63748;48.088;11.476;2022-10-28T11:56:32;1.83;;;1.00;;
75167;SDS011;63748;48.088;11.476;2022-10-28T12:14:13;4.22;;;0.95;;
75167;SDS011;63748;48.088;11.476;2022-10-28T12:21:43;3.95;;;0.82;;
75167;SDS011;63748;48.088;11.476;2022-10-28T12:24:14;3.03;;;1.17;;
75167;SDS011;63748;48.088;11.476;2022-10-28T12:26:46;4.15;;;1.52;;
75167;SDS011;63748;48.088;11.476;2022-10-28T12:31:44;2.53;;;1.02;;
75167;SDS011;63748;48.088;11.476;2022-10-28T12:34:22;1.90;;;0.80;;
75167;SDS011;63748;48.088;11.476;2022-10-28T12:36:51;2.40;;;1.10;;
75167;SDS011;63748;48.088;11.476;2022-10-28T12:39:43;2.05;;;0.88;;
75167;SDS011;63748;48.088;11.476;2022-10-28T12:42:13;6.00;;;1.05;;
75167;SDS011;63748;48.088;11.476;2022-10-28T12:44:41;4.90;;;1.10;;
75167;SDS011;63748;48.088;11.476;2022-10-28T12:54:53;2.00;;;0.80;;
75167;SDS011;63748;48.088;11.476;2022-10-28T12:57:22;3.50;;;1.27;;
75167;SDS011;63748;48.088;11.476;2022-10-28T12:59:51;2.13;;;0.90;;
75167;SDS011;63748;48.088;11.476;2022-10-28T13:02:21;1.42;;;0.90;;
75167;SDS011;63748;48.088;11.476;2022-10-28T13:04:49;2.53;;;0.85;;
75167;SDS011;63748;48.088;11.476;2022-10-28T13:07:21;1.30;;;0.90;;
75167;SDS011;63748;48.088;11.476;2022-10-28T13:10:41;2.85;;;0.90;;
75167;SDS011;63748;48.088;11.476;2022-10-28T13:28:21;2.22;;;1.02;;
75167;SDS011;63748;48.088;11.476;2022-10-28T13:30:52;2.53;;;1.00;;
75167;SDS011;63748;48.088;11.476;2022-10-28T13:33:23;2.30;;;1.17;;
75167;SDS011;63748;48.088;11.476;2022-10-28T13:35:50;1.75;;;1.00;;
75167;SDS011;63748;48.088;11.476;2022-10-28T13:38:18;2.92;;;1.08;;
75167;SDS011;63748;48.088;11.476;2022-10-28T13:43:18;2.17;;;1.13;;
75167;SDS011;63748;48.088;11.476;2022-10-28T13:45:46;1.73;;;1.20;;
75167;SDS011;63748;48.088;11.476;2022-10-28T13:51:36;2.63;;;1.33;;
75167;SDS011;63748;48.088;11.476;2022-10-28T13:58:54;4.85;;;1.95;;
75167;SDS011;63748;48.088;11.476;2022-10-28T14:07:00;6.63;;;1.17;;
75167;SDS011;63748;48.088;11.476;2022-10-28T14:09:27;2.65;;;1.08;;
75167;SDS011;63748;48.088;11.476;2022-10-28T14:14:55;3.33;;;0.98;;
75167;SDS011;63748;48.088;11.476;2022-10-28T14:17:23;2.38;;;0.80;;
75167;SDS011;63748;48.088;11.476;2022-10-28T14:19:51;1.60;;;1.00;;
75167;SDS011;63748;48.088;11.476;2022-10-28T14:22:32;2.65;;;1.00;;
75167;SDS011;63748;48.088;11.476;2022-10-28T14:24:58;2.53;;;0.93;;
75167;SDS011;63748;48.088;11.476;2022-10-28T14:27:28;3.03;;;0.93;;
75167;SDS011;63748;48.088;11.476;2022-10-28T14:40:16;4.15;;;1.15;;
75167;SDS011;63748;48.088;11.476;2022-10-28T14:42:48;2.78;;;1.42;;
75167;SDS011;63748;48.088;11.476;2022-10-28T14:50:45;4.90;;;1.60;;
75167;SDS011;63748;48.088;11.476;2022-10-28T14:53:13;3.72;;;1.65;;
75167;SDS011;63748;48.088;11.476;2022-10-28T14:55:43;4.30;;;1.10;;
75167;SDS011;63748;48.088;11.476;2022-10-28T15:00:40;5.78;;;1.80;;
75167;SDS011;63748;48.088;11.476;2022-10-28T15:03:09;3.97;;;1.42;;
75167;SDS011;63748;48.088;11.476;2022-10-28T15:05:36;3.47;;;1.10;;
75167;SDS011;63748;48.088;11.476;2022-10-28T15:08:02;3.10;;;1.20;;
75167;SDS011;63748;48.088;11.476;2022-10-28T15:10:29;3.10;;;1.00;;
75167;SDS011;63748;48.088;11.476;2022-10-28T15:12:57;4.95;;;0.90;;
75167;SDS011;63748;48.088;11.476;2022-10-28T15:15:25;5.00;;;1.40;;
75167;SDS011;63748;48.088;11.476;2022-10-28T15:17:52;5.40;;;1.25;;
75167;SDS011;63748;48.088;11.476;2022-10-28T15:22:44;2.92;;;1.52;;
75167;SDS011;63748;48.088;11.476;2022-10-28T15:25:11;3.63;;;1.30;;
75167;SDS011;63748;48.088;11.476;2022-10-28T15:27:39;5.85;;;1.50;;
75167;SDS011;63748;48.088;11.476;2022-10-28T15:30:11;5.82;;;1.63;;
75167;SDS011;63748;48.088;11.476;2022-10-28T15:32:38;3.85;;;1.40;;
75167;SDS011;63748;48.088;11.476;2022-10-28T15:37:50;4.15;;;1.83;;
75167;SDS011;63748;48.088;11.476;2022-10-28T15:40:32;4.20;;;1.60;;
75167;SDS011;63748;48.088;11.476;2022-10-28T15:43:03;4.70;;;1.50;;
75167;SDS011;63748;48.088;11.476;2022-10-28T15:45:33;2.38;;;1.17;;
75167;SDS011;63748;48.088;11.476;2022-10-28T15:48:00;2.30;;;1.50;;
75167;SDS011;63748;48.088;11.476;2022-10-28T15:50:32;2.33;;;1.20;;
75167;SDS011;63748;48.088;11.476;2022-10-28T15:55:43;3.20;;;1.45;;
75167;SDS011;63748;48.088;11.476;2022-10-28T16:03:23;4.43;;;1.75;;
75167;SDS011;63748;48.088;11.476;2022-10-28T16:05:50;3.00;;;1.85;;
75167;SDS011;63748;48.088;11.476;2022-10-28T16:10:47;2.75;;;1.70;;
75167;SDS011;63748;48.088;11.476;2022-10-28T16:13:18;4.32;;;1.77;;
75167;SDS011;63748;48.088;11.476;2022-10-28T16:15:48;5.25;;;1.40;;
75167;SDS011;63748;48.088;11.476;2022-10-28T16:18:14;4.32;;;1.50;;
75167;SDS011;63748;48.088;11.476;2022-10-28T16:20:40;3.63;;;1.30;;
75167;SDS011;63748;48.088;11.476;2022-10-28T16:23:16;3.08;;;1.48;;
75167;SDS011;63748;48.088;11.476;2022-10-28T16:25:43;3.95;;;1.90;;
75167;SDS011;63748;48.088;11.476;2022-10-28T16:28:12;6.45;;;2.70;;
75167;SDS011;63748;48.088;11.476;2022-10-28T16:30:41;5.22;;;2.35;;
75167;SDS011;63748;48.088;11.476;2022-10-28T16:33:08;5.50;;;2.45;;
75167;SDS011;63748;48.088;11.476;2022-10-28T16:35:34;4.78;;;2.58;;
75167;SDS011;63748;48.088;11.476;2022-10-28T16:38:00;4.75;;;2.63;;
75167;SDS011;63748;48.088;11.476;2022-10-28T16:40:26;3.83;;;2.28;;
75167;SDS011;63748;48.088;11.476;2022-10-28T16:42:52;4.00;;;2.33;;
75167;SDS011;63748;48.088;11.476;2022-10-28T16:45:19;3.75;;;1.45;;
75167;SDS011;63748;48.088;11.476;2022-10-28T16:47:45;4.63;;;1.80;;
75167;SDS011;63748;48.088;11.476;2022-10-28T16:50:11;3.38;;;1.80;;
75167;SDS011;63748;48.088;11.476;2022-10-28T16:52:38;3.45;;;1.65;;
75167;SDS011;63748;48.088;11.476;2022-10-28T16:55:05;3.50;;;2.67;;
75167;SDS011;63748;48.088;11.476;2022-10-28T16:57:31;6.68;;;3.10;;
75167;SDS011;63748;48.088;11.476;2022-10-28T16:59:57;4.32;;;2.85;;
75167;SDS011;63748;48.088;11.476;2022-10-28T17:04:49;4.20;;;2.53;;
75167;SDS011;63748;48.088;11.476;2022-10-28T17:07:15;6.00;;;2.70;;
75167;SDS011;63748;48.088;11.476;2022-10-28T17:09:42;4.00;;;2.55;;
75167;SDS011;63748;48.088;11.476;2022-10-28T17:12:12;5.15;;;2.90;;
75167;SDS011;63748;48.088;11.476;2022-10-28T17:14:38;5.07;;;2.92;;
75167;SDS011;63748;48.088;11.476;2022-10-28T17:17:04;5.20;;;3.20;;
75167;SDS011;63748;48.088;11.476;2022-10-28T17:19:31;4.05;;;2.70;;
75167;SDS011;63748;48.088;11.476;2022-10-28T17:21:57;5.05;;;2.85;;
75167;SDS011;63748;48.088;11.476;2022-10-28T17:24:23;3.90;;;2.45;;
75167;SDS011;63748;48.088;11.476;2022-10-28T17:26:50;5.15;;;2.65;;
75167;SDS011;63748;48.088;11.476;2022-10-28T17:29:16;4.60;;;2.72;;
75167;SDS011;63748;48.088;11.476;2022-10-28T17:31:42;4.53;;;3.05;;
75167;SDS011;63748;48.088;11.476;2022-10-28T17:34:09;5.60;;;3.17;;
75167;SDS011;63748;48.088;11.476;2022-10-28T17:36:35;7.13;;;2.88;;
75167;SDS011;63748;48.088;11.476;2022-10-28T17:39:02;5.75;;;3.50;;
75167;SDS011;63748;48.088;11.476;2022-10-28T17:41:28;4.85;;;2.60;;
75167;SDS011;63748;48.088;11.476;2022-10-28T17:43:54;7.35;;;4.20;;
75167;SDS011;63748;48.088;11.476;2022-10-28T17:46:20;8.93;;;4.63;;
75167;SDS011;63748;48.088;11.476;2022-10-28T17:48:46;8.23;;;3.70;;
75167;SDS011;63748;48.088;11.476;2022-10-28T17:51:13;11.50;;;4.97;;
75167;SDS011;63748;48.088;11.476;2022-10-28T17:53:39;18.70;;;10.18;;
75167;SDS011;63748;48.088;11.476;2022-10-28T17:56:05;15.68;;;8.82;;
75167;SDS011;63748;48.088;11.476;2022-10-28T17:58:32;18.23;;;11.57;;